sensor_id;sensor_type;location;lat;lon;timestamp;P1;durP1;ratioP1;P2;durP2;ratioP2
22711;SDS011;11523;50.390;8.072;2023-11-21T00:01:58;8.63;;;7.13;;
22711;SDS011;11523;50.390;8.072;2023-11-21T00:04:24;10.80;;;6.90;;
22711;SDS011;11523;50.390;8.072;2023-11-21T00:06:52;10.55;;;7.40;;
22711;SDS011;11523;50.390;8.072;2023-11-21T00:09:19;9.93;;;7.20;;
22711;SDS011;11523;50.390;8.072;2023-11-21T00:11:45;13.45;;;8.25;;
22711;SDS011;11523;50.390;8.072;2023-11-21T00:14:11;10.50;;;7.82;;
22711;SDS011;11523;50.390;8.072;2023-11-21T00:16:37;10.32;;;7.80;;
22711;SDS011;11523;50.390;8.072;2023-11-21T00:19:03;12.05;;;7.70;;
22711;SDS011;11523;50.390;8.072;2023-11-21T00:21:29;10.20;;;7.78;;
22711;SDS011;11523;50.390;8.072;2023-11-21T00:23:55;14.73;;;7.80;;
22711;SDS011;11523;50.390;8.072;2023-11-21T00:26:21;9.27;;;7.22;;
22711;SDS011;11523;50.390;8.072;2023-11-21T00:28:49;10.68;;;7.40;;
22711;SDS011;11523;50.390;8.072;2023-11-21T00:31:15;12.65;;;8.20;;
22711;SDS011;11523;50.390;8.072;2023-11-21T00:33:41;12.77;;;7.30;;
22711;SDS011;11523;50.390;8.072;2023-11-21T00:36:08;8.98;;;6.97;;
22711;SDS011;11523;50.390;8.072;2023-11-21T00:38:35;10.30;;;7.40;;
22711;SDS011;11523;50.390;8.072;2023-11-21T00:41:01;9.38;;;7.30;;
22711;SDS011;11523;50.390;8.072;2023-11-21T00:43:27;11.80;;;7.72;;
22711;SDS011;11523;50.390;8.072;2023-11-21T00:45:53;9.15;;;7.20;;
22711;SDS011;11523;50.390;8.072;2023-11-21T00:48:19;9.27;;;7.70;;
22711;SDS011;11523;50.390;8.072;2023-11-21T00:50:45;9.88;;;7.20;;
22711;SDS011;11523;50.390;8.072;2023-11-21T00:53:11;10.38;;;7.00;;
22711;SDS011;11523;50.390;8.072;2023-11-21T00:55:37;12.27;;;7.20;;
22711;SDS011;11523;50.390;8.072;2023-11-21T00:58:06;9.90;;;7.40;;
22711;SDS011;11523;50.390;8.072;2023-11-21T01:00:33;8.55;;;7.55;;
22711;SDS011;11523;50.390;8.072;2023-11-21T01:02:59;9.02;;;7.00;;
22711;SDS011;11523;50.390;8.072;2023-11-21T01:05:25;12.68;;;8.27;;
22711;SDS011;11523;50.390;8.072;2023-11-21T01:07:52;11.85;;;7.32;;
22711;SDS011;11523;50.390;8.072;2023-11-21T01:10:17;9.48;;;7.63;;
22711;SDS011;11523;50.390;8.072;2023-11-21T01:12:44;9.45;;;7.15;;
22711;SDS011;11523;50.390;8.072;2023-11-21T01:15:10;8.57;;;6.60;;
22711;SDS011;11523;50.390;8.072;2023-11-21T01:17:37;11.55;;;7.65;;
22711;SDS011;11523;50.390;8.072;2023-11-21T01:20:03;9.27;;;7.03;;
22711;SDS011;11523;50.390;8.072;2023-11-21T01:22:36;8.40;;;6.78;;
22711;SDS011;11523;50.390;8.072;2023-11-21T01:25:01;10.05;;;7.95;;
22711;SDS011;11523;50.390;8.072;2023-11-21T01:27:29;10.32;;;7.50;;
22711;SDS011;11523;50.390;8.072;2023-11-21T01:29:55;11.43;;;7.90;;
22711;SDS011;11523;50.390;8.072;2023-11-21T01:32:21;9.82;;;7.57;;
22711;SDS011;11523;50.390;8.072;2023-11-21T01:34:47;9.57;;;7.05;;
22711;SDS011;11523;50.390;8.072;2023-11-21T01:37:14;10.55;;;7.88;;
22711;SDS011;11523;50.390;8.072;2023-11-21T01:39:39;11.13;;;7.88;;
22711;SDS011;11523;50.390;8.072;2023-11-21T01:42:05;10.32;;;8.23;;
22711;SDS011;11523;50.390;8.072;2023-11-21T01:44:32;11.65;;;8.48;;
22711;SDS011;11523;50.390;8.072;2023-11-21T01:46:58;12.15;;;8.05;;
22711;SDS011;11523;50.390;8.072;2023-11-21T01:49:24;11.50;;;7.68;;
22711;SDS011;11523;50.390;8.072;2023-11-21T01:51:50;13.63;;;8.55;;
22711;SDS011;11523;50.390;8.072;2023-11-21T01:54:17;12.48;;;8.32;;
22711;SDS011;11523;50.390;8.072;2023-11-21T01:56:46;12.25;;;8.48;;
22711;SDS011;11523;50.390;8.072;2023-11-21T01:59:14;10.63;;;8.10;;
22711;SDS011;11523;50.390;8.072;2023-11-21T02:01:41;12.05;;;8.30;;
22711;SDS011;11523;50.390;8.072;2023-11-21T02:04:07;12.90;;;8.32;;
22711;SDS011;11523;50.390;8.072;2023-11-21T02:06:33;15.85;;;8.77;;
22711;SDS011;11523;50.390;8.072;2023-11-21T02:08:59;12.60;;;8.43;;
22711;SDS011;11523;50.390;8.072;2023-11-21T02:11:25;12.75;;;8.60;;
22711;SDS011;11523;50.390;8.072;2023-11-21T02:13:52;11.90;;;8.63;;
22711;SDS011;11523;50.390;8.072;2023-11-21T02:16:19;14.45;;;8.13;;
22711;SDS011;11523;50.390;8.072;2023-11-21T02:18:52;12.48;;;8.35;;
22711;SDS011;11523;50.390;8.072;2023-11-21T02:21:19;9.75;;;6.07;;
22711;SDS011;11523;50.390;8.072;2023-11-21T02:23:45;10.80;;;8.07;;
22711;SDS011;11523;50.390;8.072;2023-11-21T02:26:11;10.75;;;7.90;;
22711;SDS011;11523;50.390;8.072;2023-11-21T02:28:37;13.02;;;8.25;;
22711;SDS011;11523;50.390;8.072;2023-11-21T02:31:04;13.00;;;8.30;;
22711;SDS011;11523;50.390;8.072;2023-11-21T02:33:30;11.00;;;8.02;;
22711;SDS011;11523;50.390;8.072;2023-11-21T02:35:59;11.30;;;7.95;;
22711;SDS011;11523;50.390;8.072;2023-11-21T02:38:25;12.38;;;8.43;;
22711;SDS011;11523;50.390;8.072;2023-11-21T02:40:51;14.52;;;8.68;;
22711;SDS011;11523;50.390;8.072;2023-11-21T02:43:18;15.82;;;10.05;;
22711;SDS011;11523;50.390;8.072;2023-11-21T02:45:44;12.93;;;8.27;;
22711;SDS011;11523;50.390;8.072;2023-11-21T02:48:10;9.98;;;7.72;;
22711;SDS011;11523;50.390;8.072;2023-11-21T02:50:36;10.45;;;8.77;;
22711;SDS011;11523;50.390;8.072;2023-11-21T02:53:02;13.23;;;9.35;;
22711;SDS011;11523;50.390;8.072;2023-11-21T02:55:30;14.07;;;10.77;;
22711;SDS011;11523;50.390;8.072;2023-11-21T02:57:59;14.48;;;11.55;;
22711;SDS011;11523;50.390;8.072;2023-11-21T03:00:25;12.98;;;10.75;;
22711;SDS011;11523;50.390;8.072;2023-11-21T03:02:51;13.15;;;10.77;;
22711;SDS011;11523;50.390;8.072;2023-11-21T03:05:18;9.90;;;8.20;;
22711;SDS011;11523;50.390;8.072;2023-11-21T03:07:44;9.68;;;8.00;;
22711;SDS011;11523;50.390;8.072;2023-11-21T03:10:10;9.40;;;6.80;;
22711;SDS011;11523;50.390;8.072;2023-11-21T03:12:39;6.50;;;5.70;;
22711;SDS011;11523;50.390;8.072;2023-11-21T03:15:05;7.13;;;5.30;;
22711;SDS011;11523;50.390;8.072;2023-11-21T03:17:32;7.15;;;5.18;;
22711;SDS011;11523;50.390;8.072;2023-11-21T03:19:59;6.07;;;5.15;;
22711;SDS011;11523;50.390;8.072;2023-11-21T03:22:25;10.50;;;5.57;;
22711;SDS011;11523;50.390;8.072;2023-11-21T03:24:51;5.70;;;5.18;;
22711;SDS011;11523;50.390;8.072;2023-11-21T03:27:17;7.68;;;5.47;;
22711;SDS011;11523;50.390;8.072;2023-11-21T03:29:44;6.43;;;4.30;;
22711;SDS011;11523;50.390;8.072;2023-11-21T03:32:11;6.72;;;5.07;;
22711;SDS011;11523;50.390;8.072;2023-11-21T03:34:52;7.60;;;5.80;;
22711;SDS011;11523;50.390;8.072;2023-11-21T03:37:18;3.58;;;2.78;;
22711;SDS011;11523;50.390;8.072;2023-11-21T03:39:45;4.30;;;3.90;;
22711;SDS011;11523;50.390;8.072;2023-11-21T03:42:12;9.32;;;4.22;;
22711;SDS011;11523;50.390;8.072;2023-11-21T03:44:38;6.50;;;3.58;;
22711;SDS011;11523;50.390;8.072;2023-11-21T03:47:03;7.72;;;4.72;;
22711;SDS011;11523;50.390;8.072;2023-11-21T03:49:30;8.82;;;5.28;;
22711;SDS011;11523;50.390;8.072;2023-11-21T03:51:56;8.95;;;5.05;;
22711;SDS011;11523;50.390;8.072;2023-11-21T03:54:22;6.78;;;5.32;;
22711;SDS011;11523;50.390;8.072;2023-11-21T03:56:49;5.82;;;4.50;;
22711;SDS011;11523;50.390;8.072;2023-11-21T03:59:15;7.40;;;4.38;;
22711;SDS011;11523;50.390;8.072;2023-11-21T04:01:41;4.28;;;3.70;;
22711;SDS011;11523;50.390;8.072;2023-11-21T04:04:06;3.63;;;2.40;;
22711;SDS011;11523;50.390;8.072;2023-11-21T04:06:32;5.15;;;2.83;;
22711;SDS011;11523;50.390;8.072;2023-11-21T04:08:58;3.13;;;1.92;;
22711;SDS011;11523;50.390;8.072;2023-11-21T04:11:24;1.92;;;1.48;;
22711;SDS011;11523;50.390;8.072;2023-11-21T04:13:50;3.22;;;1.63;;
22711;SDS011;11523;50.390;8.072;2023-11-21T04:16:16;3.25;;;1.80;;
22711;SDS011;11523;50.390;8.072;2023-11-21T04:18:43;2.35;;;1.98;;
22711;SDS011;11523;50.390;8.072;2023-11-21T04:21:09;2.92;;;2.30;;
22711;SDS011;11523;50.390;8.072;2023-11-21T04:23:35;2.45;;;2.15;;
22711;SDS011;11523;50.390;8.072;2023-11-21T04:26:01;2.50;;;2.28;;
22711;SDS011;11523;50.390;8.072;2023-11-21T04:28:27;5.78;;;2.70;;
22711;SDS011;11523;50.390;8.072;2023-11-21T04:30:53;6.43;;;2.70;;
22711;SDS011;11523;50.390;8.072;2023-11-21T04:33:19;5.95;;;2.92;;
22711;SDS011;11523;50.390;8.072;2023-11-21T04:35:44;5.43;;;2.67;;
22711;SDS011;11523;50.390;8.072;2023-11-21T04:38:11;3.83;;;3.47;;
22711;SDS011;11523;50.390;8.072;2023-11-21T04:40:37;4.72;;;3.00;;
22711;SDS011;11523;50.390;8.072;2023-11-21T04:43:03;6.65;;;3.30;;
22711;SDS011;11523;50.390;8.072;2023-11-21T04:45:35;5.80;;;3.33;;
22711;SDS011;11523;50.390;8.072;2023-11-21T04:48:01;5.47;;;3.10;;
22711;SDS011;11523;50.390;8.072;2023-11-21T04:50:27;5.43;;;2.90;;
22711;SDS011;11523;50.390;8.072;2023-11-21T04:52:53;3.67;;;2.70;;
22711;SDS011;11523;50.390;8.072;2023-11-21T04:55:19;3.88;;;3.00;;
22711;SDS011;11523;50.390;8.072;2023-11-21T04:57:45;3.75;;;3.03;;
22711;SDS011;11523;50.390;8.072;2023-11-21T05:00:12;3.75;;;2.97;;
22711;SDS011;11523;50.390;8.072;2023-11-21T05:02:38;5.07;;;3.30;;
22711;SDS011;11523;50.390;8.072;2023-11-21T05:05:04;3.35;;;2.60;;
22711;SDS011;11523;50.390;8.072;2023-11-21T05:07:31;6.43;;;2.75;;
22711;SDS011;11523;50.390;8.072;2023-11-21T05:09:57;3.45;;;2.80;;
22711;SDS011;11523;50.390;8.072;2023-11-21T05:12:24;6.05;;;3.20;;
22711;SDS011;11523;50.390;8.072;2023-11-21T05:14:51;6.20;;;3.53;;
22711;SDS011;11523;50.390;8.072;2023-11-21T05:17:17;3.67;;;3.08;;
22711;SDS011;11523;50.390;8.072;2023-11-21T05:19:42;8.30;;;3.20;;
22711;SDS011;11523;50.390;8.072;2023-11-21T05:22:10;6.63;;;3.45;;
22711;SDS011;11523;50.390;8.072;2023-11-21T05:24:37;6.45;;;3.03;;
22711;SDS011;11523;50.390;8.072;2023-11-21T05:27:04;8.18;;;3.40;;
22711;SDS011;11523;50.390;8.072;2023-11-21T05:29:30;5.30;;;3.03;;
22711;SDS011;11523;50.390;8.072;2023-11-21T05:31:56;5.68;;;3.17;;
22711;SDS011;11523;50.390;8.072;2023-11-21T05:34:22;7.97;;;3.53;;
22711;SDS011;11523;50.390;8.072;2023-11-21T05:36:54;3.22;;;2.70;;
22711;SDS011;11523;50.390;8.072;2023-11-21T05:39:23;4.05;;;3.17;;
22711;SDS011;11523;50.390;8.072;2023-11-21T05:41:49;7.50;;;2.60;;
22711;SDS011;11523;50.390;8.072;2023-11-21T05:44:15;5.65;;;2.70;;
22711;SDS011;11523;50.390;8.072;2023-11-21T05:46:41;6.20;;;3.10;;
22711;SDS011;11523;50.390;8.072;2023-11-21T05:49:08;6.55;;;2.63;;
22711;SDS011;11523;50.390;8.072;2023-11-21T05:51:34;2.75;;;2.20;;
22711;SDS011;11523;50.390;8.072;2023-11-21T05:54:06;7.60;;;2.67;;
22711;SDS011;11523;50.390;8.072;2023-11-21T05:56:33;3.17;;;2.35;;
22711;SDS011;11523;50.390;8.072;2023-11-21T05:58:58;3.50;;;2.83;;
22711;SDS011;11523;50.390;8.072;2023-11-21T06:01:25;3.03;;;2.40;;
22711;SDS011;11523;50.390;8.072;2023-11-21T06:03:54;4.47;;;2.72;;
22711;SDS011;11523;50.390;8.072;2023-11-21T06:06:20;3.97;;;2.47;;
22711;SDS011;11523;50.390;8.072;2023-11-21T06:08:50;3.15;;;2.35;;
22711;SDS011;11523;50.390;8.072;2023-11-21T06:11:16;4.32;;;2.38;;
22711;SDS011;11523;50.390;8.072;2023-11-21T06:13:42;5.28;;;2.30;;
22711;SDS011;11523;50.390;8.072;2023-11-21T06:16:08;5.80;;;2.65;;
22711;SDS011;11523;50.390;8.072;2023-11-21T06:18:34;3.08;;;2.78;;
22711;SDS011;11523;50.390;8.072;2023-11-21T06:21:00;5.68;;;2.60;;
22711;SDS011;11523;50.390;8.072;2023-11-21T06:23:26;3.55;;;2.38;;
22711;SDS011;11523;50.390;8.072;2023-11-21T06:25:52;3.55;;;2.25;;
22711;SDS011;11523;50.390;8.072;2023-11-21T06:28:18;3.20;;;2.30;;
22711;SDS011;11523;50.390;8.072;2023-11-21T06:30:44;6.05;;;2.42;;
22711;SDS011;11523;50.390;8.072;2023-11-21T06:33:10;3.13;;;2.70;;
22711;SDS011;11523;50.390;8.072;2023-11-21T06:35:36;2.60;;;2.40;;
22711;SDS011;11523;50.390;8.072;2023-11-21T06:38:02;4.40;;;2.53;;
22711;SDS011;11523;50.390;8.072;2023-11-21T06:40:28;5.88;;;2.50;;
22711;SDS011;11523;50.390;8.072;2023-11-21T06:42:54;4.95;;;2.55;;
22711;SDS011;11523;50.390;8.072;2023-11-21T06:45:20;5.32;;;2.10;;
22711;SDS011;11523;50.390;8.072;2023-11-21T06:47:46;4.32;;;3.08;;
22711;SDS011;11523;50.390;8.072;2023-11-21T06:50:12;3.58;;;2.60;;
22711;SDS011;11523;50.390;8.072;2023-11-21T06:52:38;6.32;;;2.83;;
22711;SDS011;11523;50.390;8.072;2023-11-21T06:55:04;6.65;;;3.20;;
22711;SDS011;11523;50.390;8.072;2023-11-21T06:57:33;4.13;;;2.65;;
22711;SDS011;11523;50.390;8.072;2023-11-21T06:59:59;4.10;;;2.72;;
22711;SDS011;11523;50.390;8.072;2023-11-21T07:02:25;4.47;;;2.50;;
22711;SDS011;11523;50.390;8.072;2023-11-21T07:04:51;4.38;;;2.80;;
22711;SDS011;11523;50.390;8.072;2023-11-21T07:07:18;3.95;;;3.03;;
22711;SDS011;11523;50.390;8.072;2023-11-21T07:09:44;11.55;;;2.90;;
22711;SDS011;11523;50.390;8.072;2023-11-21T07:12:10;2.80;;;2.22;;
22711;SDS011;11523;50.390;8.072;2023-11-21T07:14:36;4.93;;;2.90;;
22711;SDS011;11523;50.390;8.072;2023-11-21T07:17:04;4.45;;;2.25;;
22711;SDS011;11523;50.390;8.072;2023-11-21T07:19:30;6.32;;;2.67;;
22711;SDS011;11523;50.390;8.072;2023-11-21T07:22:02;6.18;;;2.67;;
22711;SDS011;11523;50.390;8.072;2023-11-21T07:24:30;10.15;;;2.60;;
22711;SDS011;11523;50.390;8.072;2023-11-21T07:26:56;4.25;;;2.80;;
22711;SDS011;11523;50.390;8.072;2023-11-21T07:29:23;5.63;;;3.58;;
22711;SDS011;11523;50.390;8.072;2023-11-21T07:31:54;6.70;;;3.80;;
22711;SDS011;11523;50.390;8.072;2023-11-21T07:34:20;5.43;;;3.97;;
22711;SDS011;11523;50.390;8.072;2023-11-21T07:36:47;10.07;;;3.85;;
22711;SDS011;11523;50.390;8.072;2023-11-21T07:39:13;7.85;;;4.50;;
22711;SDS011;11523;50.390;8.072;2023-11-21T07:41:41;9.57;;;4.28;;
22711;SDS011;11523;50.390;8.072;2023-11-21T07:44:13;13.23;;;4.30;;
22711;SDS011;11523;50.390;8.072;2023-11-21T07:46:39;6.18;;;4.00;;
22711;SDS011;11523;50.390;8.072;2023-11-21T07:49:05;5.60;;;4.03;;
22711;SDS011;11523;50.390;8.072;2023-11-21T07:51:31;5.30;;;4.10;;
22711;SDS011;11523;50.390;8.072;2023-11-21T07:53:57;7.57;;;4.10;;
22711;SDS011;11523;50.390;8.072;2023-11-21T07:56:23;8.82;;;3.95;;
22711;SDS011;11523;50.390;8.072;2023-11-21T07:58:49;8.25;;;3.90;;
22711;SDS011;11523;50.390;8.072;2023-11-21T08:01:15;7.00;;;4.13;;
22711;SDS011;11523;50.390;8.072;2023-11-21T08:03:41;8.18;;;4.30;;
22711;SDS011;11523;50.390;8.072;2023-11-21T08:06:07;6.35;;;3.90;;
22711;SDS011;11523;50.390;8.072;2023-11-21T08:08:33;8.32;;;4.70;;
22711;SDS011;11523;50.390;8.072;2023-11-21T08:10:59;9.73;;;4.47;;
22711;SDS011;11523;50.390;8.072;2023-11-21T08:13:27;8.55;;;5.03;;
22711;SDS011;11523;50.390;8.072;2023-11-21T08:15:53;6.72;;;5.00;;
22711;SDS011;11523;50.390;8.072;2023-11-21T08:18:20;9.50;;;4.65;;
22711;SDS011;11523;50.390;8.072;2023-11-21T08:20:46;7.15;;;4.88;;
22711;SDS011;11523;50.390;8.072;2023-11-21T08:23:15;9.10;;;5.15;;
22711;SDS011;11523;50.390;8.072;2023-11-21T08:25:44;10.63;;;4.95;;
22711;SDS011;11523;50.390;8.072;2023-11-21T08:28:10;10.77;;;5.65;;
22711;SDS011;11523;50.390;8.072;2023-11-21T08:30:36;7.20;;;5.07;;
22711;SDS011;11523;50.390;8.072;2023-11-21T08:33:02;9.85;;;5.75;;
22711;SDS011;11523;50.390;8.072;2023-11-21T08:35:29;9.00;;;5.60;;
22711;SDS011;11523;50.390;8.072;2023-11-21T08:37:55;9.18;;;5.75;;
22711;SDS011;11523;50.390;8.072;2023-11-21T08:40:21;16.02;;;6.68;;
22711;SDS011;11523;50.390;8.072;2023-11-21T08:42:47;8.35;;;5.93;;
22711;SDS011;11523;50.390;8.072;2023-11-21T08:45:16;10.23;;;5.65;;
22711;SDS011;11523;50.390;8.072;2023-11-21T08:47:42;9.07;;;6.10;;
22711;SDS011;11523;50.390;8.072;2023-11-21T08:50:11;13.18;;;5.32;;
22711;SDS011;11523;50.390;8.072;2023-11-21T08:52:38;5.75;;;4.85;;
22711;SDS011;11523;50.390;8.072;2023-11-21T08:55:05;6.18;;;5.07;;
22711;SDS011;11523;50.390;8.072;2023-11-21T08:57:37;6.82;;;4.97;;
22711;SDS011;11523;50.390;8.072;2023-11-21T09:00:03;10.07;;;4.80;;
22711;SDS011;11523;50.390;8.072;2023-11-21T09:02:32;9.98;;;5.38;;
22711;SDS011;11523;50.390;8.072;2023-11-21T09:05:02;10.13;;;5.80;;
22711;SDS011;11523;50.390;8.072;2023-11-21T09:07:29;7.45;;;5.40;;
22711;SDS011;11523;50.390;8.072;2023-11-21T09:09:55;10.88;;;6.13;;
22711;SDS011;11523;50.390;8.072;2023-11-21T09:12:21;8.70;;;5.78;;
22711;SDS011;11523;50.390;8.072;2023-11-21T09:14:48;10.43;;;5.53;;
22711;SDS011;11523;50.390;8.072;2023-11-21T09:17:15;10.43;;;5.72;;
22711;SDS011;11523;50.390;8.072;2023-11-21T09:19:41;7.50;;;6.05;;
22711;SDS011;11523;50.390;8.072;2023-11-21T09:22:08;7.97;;;6.45;;
22711;SDS011;11523;50.390;8.072;2023-11-21T09:24:34;9.05;;;6.78;;
22711;SDS011;11523;50.390;8.072;2023-11-21T09:27:00;10.50;;;7.82;;
22711;SDS011;11523;50.390;8.072;2023-11-21T09:29:26;15.80;;;9.50;;
22711;SDS011;11523;50.390;8.072;2023-11-21T09:31:52;12.13;;;9.32;;
22711;SDS011;11523;50.390;8.072;2023-11-21T09:34:19;12.50;;;9.20;;
22711;SDS011;11523;50.390;8.072;2023-11-21T09:36:45;11.40;;;8.82;;
22711;SDS011;11523;50.390;8.072;2023-11-21T09:39:12;11.43;;;8.43;;
22711;SDS011;11523;50.390;8.072;2023-11-21T09:41:49;11.88;;;8.50;;
22711;SDS011;11523;50.390;8.072;2023-11-21T09:44:18;12.43;;;8.35;;
22711;SDS011;11523;50.390;8.072;2023-11-21T09:46:44;11.68;;;8.05;;
22711;SDS011;11523;50.390;8.072;2023-11-21T09:49:16;15.82;;;7.97;;
22711;SDS011;11523;50.390;8.072;2023-11-21T09:51:44;9.93;;;7.10;;
22711;SDS011;11523;50.390;8.072;2023-11-21T09:54:10;11.35;;;7.75;;
22711;SDS011;11523;50.390;8.072;2023-11-21T09:56:37;10.35;;;7.90;;
22711;SDS011;11523;50.390;8.072;2023-11-21T09:59:03;10.88;;;7.13;;
22711;SDS011;11523;50.390;8.072;2023-11-21T10:01:33;9.70;;;6.43;;
22711;SDS011;11523;50.390;8.072;2023-11-21T10:04:02;13.18;;;8.05;;
22711;SDS011;11523;50.390;8.072;2023-11-21T10:06:28;10.52;;;7.45;;
22711;SDS011;11523;50.390;8.072;2023-11-21T10:08:56;12.00;;;9.23;;
22711;SDS011;11523;50.390;8.072;2023-11-21T10:11:23;10.50;;;8.52;;
22711;SDS011;11523;50.390;8.072;2023-11-21T10:13:54;12.70;;;8.15;;
22711;SDS011;11523;50.390;8.072;2023-11-21T10:16:23;10.80;;;8.02;;
22711;SDS011;11523;50.390;8.072;2023-11-21T10:18:52;11.80;;;8.57;;
22711;SDS011;11523;50.390;8.072;2023-11-21T10:21:21;13.50;;;9.88;;
22711;SDS011;11523;50.390;8.072;2023-11-21T10:23:47;14.82;;;10.32;;
22711;SDS011;11523;50.390;8.072;2023-11-21T10:26:13;17.15;;;9.43;;
22711;SDS011;11523;50.390;8.072;2023-11-21T10:29:15;17.05;;;10.55;;
22711;SDS011;11523;50.390;8.072;2023-11-21T10:31:37;17.08;;;11.75;;
22711;SDS011;11523;50.390;8.072;2023-11-21T10:34:12;17.15;;;11.73;;
22711;SDS011;11523;50.390;8.072;2023-11-21T10:36:38;16.13;;;12.80;;
22711;SDS011;11523;50.390;8.072;2023-11-21T10:39:04;16.05;;;12.65;;
22711;SDS011;11523;50.390;8.072;2023-11-21T10:41:30;16.08;;;12.80;;
22711;SDS011;11523;50.390;8.072;2023-11-21T10:43:56;17.45;;;13.00;;
22711;SDS011;11523;50.390;8.072;2023-11-21T10:46:22;20.70;;;13.60;;
22711;SDS011;11523;50.390;8.072;2023-11-21T10:48:52;15.65;;;11.93;;
22711;SDS011;11523;50.390;8.072;2023-11-21T10:51:20;18.05;;;12.40;;
22711;SDS011;11523;50.390;8.072;2023-11-21T10:53:46;18.02;;;13.20;;
22711;SDS011;11523;50.390;8.072;2023-11-21T10:56:13;20.48;;;12.68;;
22711;SDS011;11523;50.390;8.072;2023-11-21T10:58:44;19.95;;;13.45;;
22711;SDS011;11523;50.390;8.072;2023-11-21T11:01:10;16.85;;;12.27;;
22711;SDS011;11523;50.390;8.072;2023-11-21T11:03:39;20.40;;;13.40;;
22711;SDS011;11523;50.390;8.072;2023-11-21T11:06:05;18.35;;;13.00;;
22711;SDS011;11523;50.390;8.072;2023-11-21T11:08:36;18.13;;;12.80;;
22711;SDS011;11523;50.390;8.072;2023-11-21T11:11:02;19.92;;;12.82;;
22711;SDS011;11523;50.390;8.072;2023-11-21T11:13:28;15.73;;;11.93;;
22711;SDS011;11523;50.390;8.072;2023-11-21T11:15:57;20.58;;;12.35;;
22711;SDS011;11523;50.390;8.072;2023-11-21T11:18:27;16.20;;;12.25;;
22711;SDS011;11523;50.390;8.072;2023-11-21T11:20:54;15.75;;;11.60;;
22711;SDS011;11523;50.390;8.072;2023-11-21T11:23:29;20.20;;;11.70;;
22711;SDS011;11523;50.390;8.072;2023-11-21T11:26:02;22.25;;;12.48;;
22711;SDS011;11523;50.390;8.072;2023-11-21T11:28:35;19.20;;;12.25;;
22711;SDS011;11523;50.390;8.072;2023-11-21T11:31:12;19.73;;;11.88;;
22711;SDS011;11523;50.390;8.072;2023-11-21T11:36:36;16.88;;;11.13;;
22711;SDS011;11523;50.390;8.072;2023-11-21T11:39:03;17.30;;;10.95;;
22711;SDS011;11523;50.390;8.072;2023-11-21T11:41:30;16.73;;;11.45;;
22711;SDS011;11523;50.390;8.072;2023-11-21T11:44:09;20.20;;;11.15;;
22711;SDS011;11523;50.390;8.072;2023-11-21T11:46:52;18.20;;;11.18;;
22711;SDS011;11523;50.390;8.072;2023-11-21T11:49:27;13.27;;;10.45;;
22711;SDS011;11523;50.390;8.072;2023-11-21T11:52:39;15.43;;;10.95;;
22711;SDS011;11523;50.390;8.072;2023-11-21T11:54:45;16.60;;;10.77;;
22711;SDS011;11523;50.390;8.072;2023-11-21T11:57:12;14.07;;;8.93;;
22711;SDS011;11523;50.390;8.072;2023-11-21T12:02:23;11.05;;;6.70;;
22711;SDS011;11523;50.390;8.072;2023-11-21T12:04:49;15.13;;;6.55;;
22711;SDS011;11523;50.390;8.072;2023-11-21T12:07:15;12.00;;;6.10;;
22711;SDS011;11523;50.390;8.072;2023-11-21T12:09:42;10.60;;;6.65;;
22711;SDS011;11523;50.390;8.072;2023-11-21T12:12:08;7.05;;;6.10;;
22711;SDS011;11523;50.390;8.072;2023-11-21T12:14:34;9.32;;;6.40;;
22711;SDS011;11523;50.390;8.072;2023-11-21T12:17:01;15.68;;;7.13;;
22711;SDS011;11523;50.390;8.072;2023-11-21T12:19:29;9.07;;;6.88;;
22711;SDS011;11523;50.390;8.072;2023-11-21T12:21:55;13.10;;;6.78;;
22711;SDS011;11523;50.390;8.072;2023-11-21T12:24:22;9.98;;;6.20;;
22711;SDS011;11523;50.390;8.072;2023-11-21T12:26:48;11.13;;;7.22;;
22711;SDS011;11523;50.390;8.072;2023-11-21T12:29:14;10.18;;;6.82;;
22711;SDS011;11523;50.390;8.072;2023-11-21T12:31:41;11.40;;;6.65;;
22711;SDS011;11523;50.390;8.072;2023-11-21T12:34:07;11.48;;;7.40;;
22711;SDS011;11523;50.390;8.072;2023-11-21T12:36:36;14.85;;;8.27;;
22711;SDS011;11523;50.390;8.072;2023-11-21T12:39:02;13.77;;;8.95;;
22711;SDS011;11523;50.390;8.072;2023-11-21T12:41:28;11.35;;;7.90;;
22711;SDS011;11523;50.390;8.072;2023-11-21T12:43:55;9.65;;;6.32;;
22711;SDS011;11523;50.390;8.072;2023-11-21T12:46:22;8.65;;;6.50;;
22711;SDS011;11523;50.390;8.072;2023-11-21T12:48:50;8.82;;;5.80;;
22711;SDS011;11523;50.390;8.072;2023-11-21T12:51:16;8.93;;;5.57;;
22711;SDS011;11523;50.390;8.072;2023-11-21T12:53:43;8.40;;;5.65;;
22711;SDS011;11523;50.390;8.072;2023-11-21T12:56:13;10.27;;;6.13;;
22711;SDS011;11523;50.390;8.072;2023-11-21T12:58:44;11.18;;;6.30;;
22711;SDS011;11523;50.390;8.072;2023-11-21T13:01:13;11.68;;;6.05;;
22711;SDS011;11523;50.390;8.072;2023-11-21T13:03:45;9.15;;;5.97;;
22711;SDS011;11523;50.390;8.072;2023-11-21T13:06:13;11.30;;;6.45;;
22711;SDS011;11523;50.390;8.072;2023-11-21T13:08:39;12.85;;;6.57;;
22711;SDS011;11523;50.390;8.072;2023-11-21T13:11:05;10.27;;;6.72;;
22711;SDS011;11523;50.390;8.072;2023-11-21T13:13:32;12.77;;;7.13;;
22711;SDS011;11523;50.390;8.072;2023-11-21T13:16:01;14.15;;;7.18;;
22711;SDS011;11523;50.390;8.072;2023-11-21T13:18:30;11.00;;;6.43;;
22711;SDS011;11523;50.390;8.072;2023-11-21T13:20:57;14.10;;;6.70;;
22711;SDS011;11523;50.390;8.072;2023-11-21T13:23:34;11.10;;;6.85;;
22711;SDS011;11523;50.390;8.072;2023-11-21T13:26:01;14.07;;;7.00;;
22711;SDS011;11523;50.390;8.072;2023-11-21T13:28:29;12.05;;;6.80;;
22711;SDS011;11523;50.390;8.072;2023-11-21T13:30:58;12.80;;;7.13;;
22711;SDS011;11523;50.390;8.072;2023-11-21T13:33:29;13.52;;;7.78;;
22711;SDS011;11523;50.390;8.072;2023-11-21T13:35:55;16.55;;;7.65;;
22711;SDS011;11523;50.390;8.072;2023-11-21T13:38:21;11.70;;;7.97;;
22711;SDS011;11523;50.390;8.072;2023-11-21T13:40:48;13.15;;;9.07;;
22711;SDS011;11523;50.390;8.072;2023-11-21T13:43:15;12.02;;;8.77;;
22711;SDS011;11523;50.390;8.072;2023-11-21T13:45:43;11.73;;;9.02;;
22711;SDS011;11523;50.390;8.072;2023-11-21T13:48:10;13.93;;;8.80;;
22711;SDS011;11523;50.390;8.072;2023-11-21T13:50:42;14.55;;;9.10;;
22711;SDS011;11523;50.390;8.072;2023-11-21T13:53:13;12.63;;;8.88;;
22711;SDS011;11523;50.390;8.072;2023-11-21T13:55:49;17.08;;;9.68;;
22711;SDS011;11523;50.390;8.072;2023-11-21T13:58:15;15.27;;;9.40;;
22711;SDS011;11523;50.390;8.072;2023-11-21T14:00:48;16.40;;;10.05;;
22711;SDS011;11523;50.390;8.072;2023-11-21T14:03:21;14.38;;;9.73;;
22711;SDS011;11523;50.390;8.072;2023-11-21T14:05:48;16.23;;;8.95;;
22711;SDS011;11523;50.390;8.072;2023-11-21T14:08:19;13.18;;;9.18;;
22711;SDS011;11523;50.390;8.072;2023-11-21T14:10:49;14.68;;;9.63;;
22711;SDS011;11523;50.390;8.072;2023-11-21T14:13:18;15.38;;;9.60;;
22711;SDS011;11523;50.390;8.072;2023-11-21T14:15:48;13.82;;;9.70;;
22711;SDS011;11523;50.390;8.072;2023-11-21T14:18:26;16.35;;;11.57;;
22711;SDS011;11523;50.390;8.072;2023-11-21T14:21:06;18.33;;;11.10;;
22711;SDS011;11523;50.390;8.072;2023-11-21T14:23:35;14.77;;;10.93;;
22711;SDS011;11523;50.390;8.072;2023-11-21T14:26:09;18.05;;;11.77;;
22711;SDS011;11523;50.390;8.072;2023-11-21T14:28:38;14.63;;;11.23;;
22711;SDS011;11523;50.390;8.072;2023-11-21T14:31:04;14.77;;;10.88;;
22711;SDS011;11523;50.390;8.072;2023-11-21T14:33:30;15.35;;;10.50;;
22711;SDS011;11523;50.390;8.072;2023-11-21T14:35:56;17.10;;;10.45;;
22711;SDS011;11523;50.390;8.072;2023-11-21T14:38:22;15.13;;;10.43;;
22711;SDS011;11523;50.390;8.072;2023-11-21T14:40:48;15.82;;;12.18;;
22711;SDS011;11523;50.390;8.072;2023-11-21T14:43:14;15.77;;;11.20;;
22711;SDS011;11523;50.390;8.072;2023-11-21T14:45:41;16.90;;;12.60;;